sensor_id;sensor_type;location;lat;lon;timestamp;P1;durP1;ratioP1;P2;durP2;ratioP2
65373;SDS011;52070;53.760;9.678;2022-07-21T00:01:10;23.73;;;10.32;;
65373;SDS011;52070;53.760;9.678;2022-07-21T00:03:37;19.92;;;10.57;;
65373;SDS011;52070;53.760;9.678;2022-07-21T00:06:04;17.33;;;9.77;;
65373;SDS011;52070;53.760;9.678;2022-07-21T00:08:33;28.63;;;11.57;;
65373;SDS011;52070;53.760;9.678;2022-07-21T00:11:01;22.70;;;11.48;;
65373;SDS011;52070;53.760;9.678;2022-07-21T00:13:28;21.70;;;11.15;;
65373;SDS011;52070;53.760;9.678;2022-07-21T00:15:55;19.90;;;11.73;;
65373;SDS011;52070;53.760;9.678;2022-07-21T00:18:25;23.95;;;11.27;;
65373;SDS011;52070;53.760;9.678;2022-07-21T00:20:53;22.17;;;11.50;;
65373;SDS011;52070;53.760;9.678;2022-07-21T00:23:22;20.65;;;10.85;;
65373;SDS011;52070;53.760;9.678;2022-07-21T00:25:49;25.13;;;11.15;;
65373;SDS011;52070;53.760;9.678;2022-07-21T00:28:19;17.63;;;11.07;;
65373;SDS011;52070;53.760;9.678;2022-07-21T00:30:47;19.60;;;11.27;;
65373;SDS011;52070;53.760;9.678;2022-07-21T00:33:15;18.40;;;10.43;;
65373;SDS011;52070;53.760;9.678;2022-07-21T00:35:44;19.88;;;11.27;;
65373;SDS011;52070;53.760;9.678;2022-07-21T00:38:11;18.85;;;10.65;;
65373;SDS011;52070;53.760;9.678;2022-07-21T00:40:38;15.55;;;9.95;;
65373;SDS011;52070;53.760;9.678;2022-07-21T00:43:05;21.00;;;11.18;;
65373;SDS011;52070;53.760;9.678;2022-07-21T00:45:32;25.40;;;11.30;;
65373;SDS011;52070;53.760;9.678;2022-07-21T00:47:59;23.67;;;11.85;;
65373;SDS011;52070;53.760;9.678;2022-07-21T00:50:27;19.73;;;10.40;;
65373;SDS011;52070;53.760;9.678;2022-07-21T00:52:56;22.92;;;11.07;;
65373;SDS011;52070;53.760;9.678;2022-07-21T00:55:23;17.23;;;10.68;;
65373;SDS011;52070;53.760;9.678;2022-07-21T00:57:51;18.25;;;10.60;;
65373;SDS011;52070;53.760;9.678;2022-07-21T01:00:19;18.02;;;10.80;;
65373;SDS011;52070;53.760;9.678;2022-07-21T01:02:48;21.50;;;11.18;;
65373;SDS011;52070;53.760;9.678;2022-07-21T01:05:15;23.25;;;11.73;;
65373;SDS011;52070;53.760;9.678;2022-07-21T01:07:44;18.33;;;11.13;;
65373;SDS011;52070;53.760;9.678;2022-07-21T01:10:15;16.13;;;10.40;;
65373;SDS011;52070;53.760;9.678;2022-07-21T01:12:43;18.17;;;10.15;;
65373;SDS011;52070;53.760;9.678;2022-07-21T01:15:11;22.65;;;11.07;;
65373;SDS011;52070;53.760;9.678;2022-07-21T01:17:40;25.45;;;11.25;;
65373;SDS011;52070;53.760;9.678;2022-07-21T01:20:08;21.15;;;10.63;;
65373;SDS011;52070;53.760;9.678;2022-07-21T01:22:38;22.23;;;11.60;;
65373;SDS011;52070;53.760;9.678;2022-07-21T01:25:06;19.67;;;11.53;;
65373;SDS011;52070;53.760;9.678;2022-07-21T01:27:34;18.95;;;10.10;;
65373;SDS011;52070;53.760;9.678;2022-07-21T01:30:02;20.40;;;11.63;;
65373;SDS011;52070;53.760;9.678;2022-07-21T01:32:30;19.60;;;10.70;;
65373;SDS011;52070;53.760;9.678;2022-07-21T01:34:57;18.58;;;11.07;;
65373;SDS011;52070;53.760;9.678;2022-07-21T01:37:27;25.48;;;12.38;;
65373;SDS011;52070;53.760;9.678;2022-07-21T01:39:57;25.33;;;13.18;;
65373;SDS011;52070;53.760;9.678;2022-07-21T01:42:41;22.05;;;13.30;;
65373;SDS011;52070;53.760;9.678;2022-07-21T01:45:08;24.75;;;13.90;;
65373;SDS011;52070;53.760;9.678;2022-07-21T01:47:36;22.00;;;12.25;;
65373;SDS011;52070;53.760;9.678;2022-07-21T01:50:03;24.38;;;13.50;;
65373;SDS011;52070;53.760;9.678;2022-07-21T01:52:31;31.13;;;15.70;;
65373;SDS011;52070;53.760;9.678;2022-07-21T01:54:59;31.63;;;14.95;;
65373;SDS011;52070;53.760;9.678;2022-07-21T01:57:26;33.33;;;15.77;;
65373;SDS011;52070;53.760;9.678;2022-07-21T01:59:53;25.55;;;13.35;;
65373;SDS011;52070;53.760;9.678;2022-07-21T02:02:20;38.38;;;14.75;;
65373;SDS011;52070;53.760;9.678;2022-07-21T02:04:47;33.72;;;14.73;;
65373;SDS011;52070;53.760;9.678;2022-07-21T02:07:14;27.23;;;14.95;;
65373;SDS011;52070;53.760;9.678;2022-07-21T02:09:41;28.75;;;14.73;;
65373;SDS011;52070;53.760;9.678;2022-07-21T02:12:09;33.95;;;16.15;;
65373;SDS011;52070;53.760;9.678;2022-07-21T02:14:37;33.70;;;17.17;;
65373;SDS011;52070;53.760;9.678;2022-07-21T02:17:04;38.28;;;18.50;;
65373;SDS011;52070;53.760;9.678;2022-07-21T02:19:31;35.00;;;18.50;;
65373;SDS011;52070;53.760;9.678;2022-07-21T02:21:58;38.65;;;19.25;;
65373;SDS011;52070;53.760;9.678;2022-07-21T02:24:25;35.05;;;18.80;;
65373;SDS011;52070;53.760;9.678;2022-07-21T02:26:52;40.67;;;21.10;;
65373;SDS011;52070;53.760;9.678;2022-07-21T02:29:20;34.90;;;18.20;;
65373;SDS011;52070;53.760;9.678;2022-07-21T02:31:47;33.17;;;18.02;;
65373;SDS011;52070;53.760;9.678;2022-07-21T02:34:14;34.33;;;17.73;;
65373;SDS011;52070;53.760;9.678;2022-07-21T02:36:41;43.58;;;20.02;;
65373;SDS011;52070;53.760;9.678;2022-07-21T02:39:08;39.45;;;19.55;;
65373;SDS011;52070;53.760;9.678;2022-07-21T02:41:35;45.78;;;20.48;;
65373;SDS011;52070;53.760;9.678;2022-07-21T02:44:01;34.50;;;19.38;;
65373;SDS011;52070;53.760;9.678;2022-07-21T02:46:30;36.03;;;19.60;;
65373;SDS011;52070;53.760;9.678;2022-07-21T02:48:57;36.17;;;18.75;;
65373;SDS011;52070;53.760;9.678;2022-07-21T02:51:24;38.83;;;18.52;;
65373;SDS011;52070;53.760;9.678;2022-07-21T02:53:50;30.20;;;17.23;;
65373;SDS011;52070;53.760;9.678;2022-07-21T02:56:17;30.45;;;17.98;;
65373;SDS011;52070;53.760;9.678;2022-07-21T02:58:44;32.75;;;17.50;;
65373;SDS011;52070;53.760;9.678;2022-07-21T03:01:12;30.17;;;16.88;;
65373;SDS011;52070;53.760;9.678;2022-07-21T03:03:41;29.10;;;15.98;;
65373;SDS011;52070;53.760;9.678;2022-07-21T03:06:07;30.80;;;18.02;;
65373;SDS011;52070;53.760;9.678;2022-07-21T03:08:34;31.67;;;17.10;;
65373;SDS011;52070;53.760;9.678;2022-07-21T03:11:01;34.28;;;17.33;;
65373;SDS011;52070;53.760;9.678;2022-07-21T03:13:29;38.75;;;16.95;;
65373;SDS011;52070;53.760;9.678;2022-07-21T03:15:56;36.47;;;16.02;;
65373;SDS011;52070;53.760;9.678;2022-07-21T03:18:23;25.70;;;16.00;;
65373;SDS011;52070;53.760;9.678;2022-07-21T03:20:51;36.22;;;16.65;;
65373;SDS011;52070;53.760;9.678;2022-07-21T03:23:18;33.33;;;17.52;;
65373;SDS011;52070;53.760;9.678;2022-07-21T03:25:45;33.05;;;16.60;;
65373;SDS011;52070;53.760;9.678;2022-07-21T03:28:12;33.00;;;16.02;;
65373;SDS011;52070;53.760;9.678;2022-07-21T03:30:39;32.78;;;15.43;;
65373;SDS011;52070;53.760;9.678;2022-07-21T03:33:06;29.58;;;15.98;;
65373;SDS011;52070;53.760;9.678;2022-07-21T03:35:33;33.10;;;15.60;;
65373;SDS011;52070;53.760;9.678;2022-07-21T03:38:02;38.67;;;15.25;;
65373;SDS011;52070;53.760;9.678;2022-07-21T03:40:31;28.48;;;14.48;;
65373;SDS011;52070;53.760;9.678;2022-07-21T03:43:01;25.58;;;13.07;;
65373;SDS011;52070;53.760;9.678;2022-07-21T03:45:29;36.70;;;14.18;;
65373;SDS011;52070;53.760;9.678;2022-07-21T03:47:58;28.35;;;12.82;;
65373;SDS011;52070;53.760;9.678;2022-07-21T03:50:26;29.45;;;12.13;;
65373;SDS011;52070;53.760;9.678;2022-07-21T03:52:53;28.30;;;11.40;;
65373;SDS011;52070;53.760;9.678;2022-07-21T03:55:22;32.03;;;11.88;;
65373;SDS011;52070;53.760;9.678;2022-07-21T03:57:50;26.35;;;11.00;;
65373;SDS011;52070;53.760;9.678;2022-07-21T04:00:20;28.92;;;12.43;;
65373;SDS011;52070;53.760;9.678;2022-07-21T04:02:49;27.65;;;11.18;;
65373;SDS011;52070;53.760;9.678;2022-07-21T04:05:17;22.95;;;9.80;;
65373;SDS011;52070;53.760;9.678;2022-07-21T04:07:45;27.52;;;9.90;;
65373;SDS011;52070;53.760;9.678;2022-07-21T04:10:14;26.73;;;9.80;;
65373;SDS011;52070;53.760;9.678;2022-07-21T04:12:47;22.63;;;9.65;;
65373;SDS011;52070;53.760;9.678;2022-07-21T04:15:14;23.33;;;9.15;;
65373;SDS011;52070;53.760;9.678;2022-07-21T04:17:44;26.60;;;10.07;;
65373;SDS011;52070;53.760;9.678;2022-07-21T04:20:12;24.05;;;9.45;;
65373;SDS011;52070;53.760;9.678;2022-07-21T04:22:40;24.95;;;9.13;;
65373;SDS011;52070;53.760;9.678;2022-07-21T04:25:09;26.67;;;9.77;;
65373;SDS011;52070;53.760;9.678;2022-07-21T04:27:36;23.15;;;8.73;;
65373;SDS011;52070;53.760;9.678;2022-07-21T04:30:06;23.45;;;8.25;;
65373;SDS011;52070;53.760;9.678;2022-07-21T04:32:35;16.20;;;7.93;;
65373;SDS011;52070;53.760;9.678;2022-07-21T04:35:02;24.75;;;8.50;;
65373;SDS011;52070;53.760;9.678;2022-07-21T04:37:29;20.30;;;8.30;;
65373;SDS011;52070;53.760;9.678;2022-07-21T04:39:56;16.50;;;7.70;;
65373;SDS011;52070;53.760;9.678;2022-07-21T04:42:23;23.42;;;8.75;;
65373;SDS011;52070;53.760;9.678;2022-07-21T04:44:50;22.38;;;8.57;;
65373;SDS011;52070;53.760;9.678;2022-07-21T04:47:19;35.53;;;8.98;;
65373;SDS011;52070;53.760;9.678;2022-07-21T04:49:46;25.90;;;8.50;;
65373;SDS011;52070;53.760;9.678;2022-07-21T04:52:13;25.42;;;8.32;;
65373;SDS011;52070;53.760;9.678;2022-07-21T04:54:40;24.02;;;8.18;;
65373;SDS011;52070;53.760;9.678;2022-07-21T04:57:07;26.77;;;8.10;;
65373;SDS011;52070;53.760;9.678;2022-07-21T04:59:37;25.13;;;7.55;;
65373;SDS011;52070;53.760;9.678;2022-07-21T05:02:04;18.48;;;6.40;;
65373;SDS011;52070;53.760;9.678;2022-07-21T05:04:33;15.45;;;6.00;;
65373;SDS011;52070;53.760;9.678;2022-07-21T05:07:00;19.45;;;6.50;;
65373;SDS011;52070;53.760;9.678;2022-07-21T05:09:27;16.60;;;6.93;;
65373;SDS011;52070;53.760;9.678;2022-07-21T05:11:54;24.25;;;7.40;;
65373;SDS011;52070;53.760;9.678;2022-07-21T05:14:21;20.05;;;6.82;;
65373;SDS011;52070;53.760;9.678;2022-07-21T05:16:48;21.73;;;6.32;;
65373;SDS011;52070;53.760;9.678;2022-07-21T05:19:14;19.85;;;7.30;;
65373;SDS011;52070;53.760;9.678;2022-07-21T05:21:43;20.25;;;6.65;;
65373;SDS011;52070;53.760;9.678;2022-07-21T05:24:11;21.77;;;6.65;;
65373;SDS011;52070;53.760;9.678;2022-07-21T05:26:38;19.05;;;6.50;;
65373;SDS011;52070;53.760;9.678;2022-07-21T05:29:05;22.27;;;7.07;;
65373;SDS011;52070;53.760;9.678;2022-07-21T05:31:31;18.23;;;6.78;;
65373;SDS011;52070;53.760;9.678;2022-07-21T05:33:58;17.95;;;6.60;;
65373;SDS011;52070;53.760;9.678;2022-07-21T05:36:25;18.55;;;6.82;;
65373;SDS011;52070;53.760;9.678;2022-07-21T05:38:54;24.95;;;7.18;;
65373;SDS011;52070;53.760;9.678;2022-07-21T05:41:21;20.52;;;7.43;;
65373;SDS011;52070;53.760;9.678;2022-07-21T05:43:48;15.82;;;6.68;;
65373;SDS011;52070;53.760;9.678;2022-07-21T05:46:15;23.60;;;7.75;;
65373;SDS011;52070;53.760;9.678;2022-07-21T05:48:42;18.95;;;6.38;;
65373;SDS011;52070;53.760;9.678;2022-07-21T05:51:09;13.43;;;6.40;;
65373;SDS011;52070;53.760;9.678;2022-07-21T05:53:36;17.67;;;6.22;;
65373;SDS011;52070;53.760;9.678;2022-07-21T05:56:04;18.17;;;6.20;;
65373;SDS011;52070;53.760;9.678;2022-07-21T05:58:32;17.48;;;5.78;;
65373;SDS011;52070;53.760;9.678;2022-07-21T06:01:00;18.17;;;5.72;;
65373;SDS011;52070;53.760;9.678;2022-07-21T06:03:38;17.98;;;5.90;;
65373;SDS011;52070;53.760;9.678;2022-07-21T06:06:08;16.00;;;5.93;;
65373;SDS011;52070;53.760;9.678;2022-07-21T06:08:36;18.15;;;6.18;;
65373;SDS011;52070;53.760;9.678;2022-07-21T06:11:05;23.25;;;6.45;;
65373;SDS011;52070;53.760;9.678;2022-07-21T06:13:32;16.98;;;6.95;;
65373;SDS011;52070;53.760;9.678;2022-07-21T06:15:59;25.00;;;7.13;;
65373;SDS011;52070;53.760;9.678;2022-07-21T06:18:26;22.85;;;7.63;;
65373;SDS011;52070;53.760;9.678;2022-07-21T06:20:53;24.38;;;8.02;;
65373;SDS011;52070;53.760;9.678;2022-07-21T06:23:20;17.42;;;6.93;;
65373;SDS011;52070;53.760;9.678;2022-07-21T06:25:48;22.33;;;8.32;;
65373;SDS011;52070;53.760;9.678;2022-07-21T06:28:17;15.77;;;6.60;;
65373;SDS011;52070;53.760;9.678;2022-07-21T06:30:45;18.13;;;6.43;;
65373;SDS011;52070;53.760;9.678;2022-07-21T06:33:12;24.33;;;7.97;;
65373;SDS011;52070;53.760;9.678;2022-07-21T06:35:39;17.70;;;8.32;;
65373;SDS011;52070;53.760;9.678;2022-07-21T06:38:06;20.55;;;6.88;;
65373;SDS011;52070;53.760;9.678;2022-07-21T06:40:33;21.05;;;8.27;;
65373;SDS011;52070;53.760;9.678;2022-07-21T06:43:01;19.98;;;7.10;;
65373;SDS011;52070;53.760;9.678;2022-07-21T06:45:29;22.80;;;8.35;;
65373;SDS011;52070;53.760;9.678;2022-07-21T06:48:00;17.58;;;8.35;;
65373;SDS011;52070;53.760;9.678;2022-07-21T06:50:28;23.50;;;9.52;;
65373;SDS011;52070;53.760;9.678;2022-07-21T06:52:55;23.88;;;9.10;;
65373;SDS011;52070;53.760;9.678;2022-07-21T06:55:22;28.48;;;8.98;;
65373;SDS011;52070;53.760;9.678;2022-07-21T06:57:49;16.85;;;8.27;;
65373;SDS011;52070;53.760;9.678;2022-07-21T07:00:16;21.85;;;8.90;;
65373;SDS011;52070;53.760;9.678;2022-07-21T07:02:45;23.75;;;10.15;;
65373;SDS011;52070;53.760;9.678;2022-07-21T07:05:12;25.85;;;10.27;;
65373;SDS011;52070;53.760;9.678;2022-07-21T07:07:39;30.92;;;11.18;;
65373;SDS011;52070;53.760;9.678;2022-07-21T07:10:07;27.25;;;11.07;;
65373;SDS011;52070;53.760;9.678;2022-07-21T07:12:34;23.35;;;10.73;;
65373;SDS011;52070;53.760;9.678;2022-07-21T07:15:02;31.75;;;12.02;;
65373;SDS011;52070;53.760;9.678;2022-07-21T07:17:30;32.47;;;12.38;;
65373;SDS011;52070;53.760;9.678;2022-07-21T07:19:58;27.25;;;12.48;;
65373;SDS011;52070;53.760;9.678;2022-07-21T07:22:25;26.33;;;12.40;;
65373;SDS011;52070;53.760;9.678;2022-07-21T07:24:52;30.63;;;12.52;;
65373;SDS011;52070;53.760;9.678;2022-07-21T07:27:19;29.98;;;12.32;;
65373;SDS011;52070;53.760;9.678;2022-07-21T07:29:46;24.63;;;11.73;;
65373;SDS011;52070;53.760;9.678;2022-07-21T07:32:13;29.05;;;12.88;;
65373;SDS011;52070;53.760;9.678;2022-07-21T07:34:40;27.55;;;12.38;;
65373;SDS011;52070;53.760;9.678;2022-07-21T07:37:08;31.95;;;13.88;;
65373;SDS011;52070;53.760;9.678;2022-07-21T07:39:35;31.38;;;14.00;;
65373;SDS011;52070;53.760;9.678;2022-07-21T07:42:03;30.95;;;14.48;;
65373;SDS011;52070;53.760;9.678;2022-07-21T07:44:30;28.42;;;14.20;;
65373;SDS011;52070;53.760;9.678;2022-07-21T07:46:58;32.78;;;15.38;;
65373;SDS011;52070;53.760;9.678;2022-07-21T07:49:27;30.65;;;14.10;;
65373;SDS011;52070;53.760;9.678;2022-07-21T07:51:54;30.27;;;14.32;;
65373;SDS011;52070;53.760;9.678;2022-07-21T07:54:22;30.95;;;15.15;;
65373;SDS011;52070;53.760;9.678;2022-07-21T07:56:49;29.73;;;15.50;;
65373;SDS011;52070;53.760;9.678;2022-07-21T07:59:17;32.35;;;16.20;;
65373;SDS011;52070;53.760;9.678;2022-07-21T08:01:44;29.85;;;17.45;;
65373;SDS011;52070;53.760;9.678;2022-07-21T08:04:11;34.60;;;18.77;;
65373;SDS011;52070;53.760;9.678;2022-07-21T08:06:42;39.17;;;18.70;;
65373;SDS011;52070;53.760;9.678;2022-07-21T08:09:09;35.07;;;17.67;;
65373;SDS011;52070;53.760;9.678;2022-07-21T08:11:37;40.28;;;18.80;;
65373;SDS011;52070;53.760;9.678;2022-07-21T08:14:04;32.72;;;18.50;;
65373;SDS011;52070;53.760;9.678;2022-07-21T08:16:31;40.72;;;19.92;;
65373;SDS011;52070;53.760;9.678;2022-07-21T08:19:00;36.60;;;18.98;;
65373;SDS011;52070;53.760;9.678;2022-07-21T08:21:27;33.13;;;19.73;;
65373;SDS011;52070;53.760;9.678;2022-07-21T08:23:56;30.98;;;19.63;;
65373;SDS011;52070;53.760;9.678;2022-07-21T08:26:24;29.33;;;19.50;;
65373;SDS011;52070;53.760;9.678;2022-07-21T08:28:52;36.17;;;20.95;;
65373;SDS011;52070;53.760;9.678;2022-07-21T08:31:20;36.28;;;21.02;;
65373;SDS011;52070;53.760;9.678;2022-07-21T08:33:47;39.70;;;20.55;;
65373;SDS011;52070;53.760;9.678;2022-07-21T08:36:14;36.63;;;21.50;;
65373;SDS011;52070;53.760;9.678;2022-07-21T08:38:43;41.65;;;22.10;;
65373;SDS011;52070;53.760;9.678;2022-07-21T08:41:10;33.17;;;20.80;;
65373;SDS011;52070;53.760;9.678;2022-07-21T08:43:38;32.83;;;20.38;;
65373;SDS011;52070;53.760;9.678;2022-07-21T08:46:06;38.45;;;21.23;;
65373;SDS011;52070;53.760;9.678;2022-07-21T08:48:33;34.13;;;21.30;;
65373;SDS011;52070;53.760;9.678;2022-07-21T08:51:00;32.70;;;21.17;;
65373;SDS011;52070;53.760;9.678;2022-07-21T08:53:27;32.72;;;20.83;;
65373;SDS011;52070;53.760;9.678;2022-07-21T08:55:54;30.83;;;19.98;;
65373;SDS011;52070;53.760;9.678;2022-07-21T08:58:21;35.28;;;21.08;;
65373;SDS011;52070;53.760;9.678;2022-07-21T09:00:49;35.58;;;21.00;;
65373;SDS011;52070;53.760;9.678;2022-07-21T09:03:18;35.45;;;19.75;;
65373;SDS011;52070;53.760;9.678;2022-07-21T09:06:00;32.70;;;20.67;;
65373;SDS011;52070;53.760;9.678;2022-07-21T09:08:30;34.13;;;20.10;;
65373;SDS011;52070;53.760;9.678;2022-07-21T09:11:12;34.15;;;21.70;;
65373;SDS011;52070;53.760;9.678;2022-07-21T09:13:46;37.22;;;21.92;;
65373;SDS011;52070;53.760;9.678;2022-07-21T09:16:36;35.35;;;22.02;;
65373;SDS011;52070;53.760;9.678;2022-07-21T09:19:05;35.67;;;22.52;;
65373;SDS011;52070;53.760;9.678;2022-07-21T09:21:33;35.17;;;22.80;;
65373;SDS011;52070;53.760;9.678;2022-07-21T09:24:11;33.47;;;21.88;;
65373;SDS011;52070;53.760;9.678;2022-07-21T09:26:55;36.15;;;22.05;;
65373;SDS011;52070;53.760;9.678;2022-07-21T09:29:28;41.75;;;23.75;;
65373;SDS011;52070;53.760;9.678;2022-07-21T09:32:11;42.80;;;22.42;;
65373;SDS011;52070;53.760;9.678;2022-07-21T09:34:41;36.30;;;23.67;;
65373;SDS011;52070;53.760;9.678;2022-07-21T09:37:08;42.17;;;23.30;;
65373;SDS011;52070;53.760;9.678;2022-07-21T09:39:45;34.60;;;20.95;;
65373;SDS011;52070;53.760;9.678;2022-07-21T09:42:21;35.65;;;21.15;;
65373;SDS011;52070;53.760;9.678;2022-07-21T09:44:52;33.42;;;19.17;;
65373;SDS011;52070;53.760;9.678;2022-07-21T09:47:22;30.27;;;19.37;;
65373;SDS011;52070;53.760;9.678;2022-07-21T09:49:51;27.88;;;19.10;;
65373;SDS011;52070;53.760;9.678;2022-07-21T09:52:23;30.77;;;18.48;;
65373;SDS011;52070;53.760;9.678;2022-07-21T09:54:52;31.90;;;18.58;;
65373;SDS011;52070;53.760;9.678;2022-07-21T09:57:21;25.98;;;18.73;;
65373;SDS011;52070;53.760;9.678;2022-07-21T09:59:48;29.88;;;19.30;;
65373;SDS011;52070;53.760;9.678;2022-07-21T10:02:17;32.47;;;20.27;;
65373;SDS011;52070;53.760;9.678;2022-07-21T10:04:46;30.15;;;19.02;;
65373;SDS011;52070;53.760;9.678;2022-07-21T10:07:18;30.25;;;18.17;;
65373;SDS011;52070;53.760;9.678;2022-07-21T10:09:47;29.95;;;18.35;;
65373;SDS011;52070;53.760;9.678;2022-07-21T10:12:14;24.45;;;18.17;;
65373;SDS011;52070;53.760;9.678;2022-07-21T10:14:41;24.52;;;18.23;;
65373;SDS011;52070;53.760;9.678;2022-07-21T10:17:08;27.67;;;19.38;;
65373;SDS011;52070;53.760;9.678;2022-07-21T10:19:37;29.60;;;19.63;;
65373;SDS011;52070;53.760;9.678;2022-07-21T10:22:14;30.23;;;21.77;;
65373;SDS011;52070;53.760;9.678;2022-07-21T10:24:50;32.60;;;22.33;;
65373;SDS011;52070;53.760;9.678;2022-07-21T10:27:18;29.65;;;22.00;;
65373;SDS011;52070;53.760;9.678;2022-07-21T10:29:49;28.48;;;22.30;;
65373;SDS011;52070;53.760;9.678;2022-07-21T10:32:19;28.52;;;21.10;;
65373;SDS011;52070;53.760;9.678;2022-07-21T10:34:48;27.63;;;21.58;;
65373;SDS011;52070;53.760;9.678;2022-07-21T10:49:04;26.75;;;20.60;;
65373;SDS011;52070;53.760;9.678;2022-07-21T10:51:33;24.55;;;19.75;;
65373;SDS011;52070;53.760;9.678;2022-07-21T10:54:19;28.52;;;21.33;;
65373;SDS011;52070;53.760;9.678;2022-07-21T11:02:48;26.05;;;21.05;;
65373;SDS011;52070;53.760;9.678;2022-07-21T11:05:17;26.02;;;22.15;;
65373;SDS011;52070;53.760;9.678;2022-07-21T11:10:39;23.67;;;19.20;;
65373;SDS011;52070;53.760;9.678;2022-07-21T11:15:44;20.35;;;16.50;;
65373;SDS011;52070;53.760;9.678;2022-07-21T11:18:23;23.58;;;17.30;;
65373;SDS011;52070;53.760;9.678;2022-07-21T11:21:01;21.27;;;17.40;;
65373;SDS011;52070;53.760;9.678;2022-07-21T11:23:39;18.52;;;15.50;;
65373;SDS011;52070;53.760;9.678;2022-07-21T11:26:10;18.00;;;16.10;;
65373;SDS011;52070;53.760;9.678;2022-07-21T11:28:39;18.90;;;13.98;;
65373;SDS011;52070;53.760;9.678;2022-07-21T11:31:07;13.55;;;12.07;;
65373;SDS011;52070;53.760;9.678;2022-07-21T11:33:39;12.75;;;10.85;;
65373;SDS011;52070;53.760;9.678;2022-07-21T11:36:07;12.95;;;10.32;;
65373;SDS011;52070;53.760;9.678;2022-07-21T11:38:34;11.93;;;9.05;;
65373;SDS011;52070;53.760;9.678;2022-07-21T11:41:16;10.02;;;8.32;;
65373;SDS011;52070;53.760;9.678;2022-07-21T11:43:45;9.50;;;8.15;;
65373;SDS011;52070;53.760;9.678;2022-07-21T11:46:12;8.05;;;7.15;;
65373;SDS011;52070;53.760;9.678;2022-07-21T11:48:40;12.85;;;9.25;;
65373;SDS011;52070;53.760;9.678;2022-07-21T11:51:07;8.77;;;6.93;;
65373;SDS011;52070;53.760;9.678;2022-07-21T11:53:34;6.95;;;5.45;;
65373;SDS011;52070;53.760;9.678;2022-07-21T11:56:01;7.43;;;6.63;;
65373;SDS011;52070;53.760;9.678;2022-07-21T11:58:41;8.10;;;5.72;;
65373;SDS011;52070;53.760;9.678;2022-07-21T12:01:08;6.85;;;5.68;;
65373;SDS011;52070;53.760;9.678;2022-07-21T12:03:45;7.57;;;6.60;;
65373;SDS011;52070;53.760;9.678;2022-07-21T12:06:14;7.38;;;6.15;;
65373;SDS011;52070;53.760;9.678;2022-07-21T12:08:42;8.57;;;6.82;;
65373;SDS011;52070;53.760;9.678;2022-07-21T12:11:09;9.90;;;6.40;;
65373;SDS011;52070;53.760;9.678;2022-07-21T12:13:56;7.90;;;6.43;;
65373;SDS011;52070;53.760;9.678;2022-07-21T12:16:24;7.40;;;6.65;;
65373;SDS011;52070;53.760;9.678;2022-07-21T12:21:42;6.70;;;6.05;;
65373;SDS011;52070;53.760;9.678;2022-07-21T12:24:10;8.32;;;6.43;;
65373;SDS011;52070;53.760;9.678;2022-07-21T12:26:37;8.23;;;6.47;;
65373;SDS011;52070;53.760;9.678;2022-07-21T12:29:06;8.38;;;6.90;;
65373;SDS011;52070;53.760;9.678;2022-07-21T12:31:33;6.95;;;6.10;;
65373;SDS011;52070;53.760;9.678;2022-07-21T12:34:10;6.43;;;5.80;;
65373;SDS011;52070;53.760;9.678;2022-07-21T12:36:38;7.95;;;6.78;;
65373;SDS011;52070;53.760;9.678;2022-07-21T12:39:15;9.27;;;6.60;;
65373;SDS011;52070;53.760;9.678;2022-07-21T12:41:58;7.68;;;6.15;;
65373;SDS011;52070;53.760;9.678;2022-07-21T12:44:26;7.82;;;6.80;;
65373;SDS011;52070;53.760;9.678;2022-07-21T12:46:55;8.07;;;6.40;;
65373;SDS011;52070;53.760;9.678;2022-07-21T12:49:22;7.18;;;6.47;;
65373;SDS011;52070;53.760;9.678;2022-07-21T12:51:54;7.05;;;5.72;;
65373;SDS011;52070;53.760;9.678;2022-07-21T12:54:22;7.45;;;6.65;;
65373;SDS011;52070;53.760;9.678;2022-07-21T12:56:49;7.18;;;6.45;;
65373;SDS011;52070;53.760;9.678;2022-07-21T12:59:16;12.40;;;7.40;;
65373;SDS011;52070;53.760;9.678;2022-07-21T13:01:44;7.80;;;7.00;;
65373;SDS011;52070;53.760;9.678;2022-07-21T13:04:12;8.47;;;7.63;;
65373;SDS011;52070;53.760;9.678;2022-07-21T13:06:39;6.60;;;5.78;;
65373;SDS011;52070;53.760;9.678;2022-07-21T13:09:06;7.35;;;6.15;;
65373;SDS011;52070;53.760;9.678;2022-07-21T13:11:33;6.13;;;5.47;;
65373;SDS011;52070;53.760;9.678;2022-07-21T13:14:00;5.63;;;5.05;;
65373;SDS011;52070;53.760;9.678;2022-07-21T13:16:29;6.15;;;5.25;;
65373;SDS011;52070;53.760;9.678;2022-07-21T13:18:58;5.85;;;5.18;;
65373;SDS011;52070;53.760;9.678;2022-07-21T13:21:24;5.13;;;4.30;;
65373;SDS011;52070;53.760;9.678;2022-07-21T13:23:51;5.25;;;4.60;;
65373;SDS011;52070;53.760;9.678;2022-07-21T13:26:18;5.07;;;4.43;;
65373;SDS011;52070;53.760;9.678;2022-07-21T13:28:45;6.43;;;4.20;;
65373;SDS011;52070;53.760;9.678;2022-07-21T13:31:12;4.22;;;3.90;;
65373;SDS011;52070;53.760;9.678;2022-07-21T13:33:41;5.10;;;4.60;;
65373;SDS011;52070;53.760;9.678;2022-07-21T13:36:09;5.20;;;4.70;;
65373;SDS011;52070;53.760;9.678;2022-07-21T13:38:36;5.00;;;4.60;;
65373;SDS011;52070;53.760;9.678;2022-07-21T13:41:05;5.10;;;4.60;;
65373;SDS011;52070;53.760;9.678;2022-07-21T13:43:32;5.80;;;5.30;;
65373;SDS011;52070;53.760;9.678;2022-07-21T13:45:59;6.75;;;6.00;;
65373;SDS011;52070;53.760;9.678;2022-07-21T13:48:26;7.05;;;5.82;;
65373;SDS011;52070;53.760;9.678;2022-07-21T13:50:53;8.45;;;5.95;;
65373;SDS011;52070;53.760;9.678;2022-07-21T13:53:22;6.60;;;6.00;;
65373;SDS011;52070;53.760;9.678;2022-07-21T13:55:52;6.03;;;5.53;;
65373;SDS011;52070;53.760;9.678;2022-07-21T13:58:19;7.53;;;6.60;;
65373;SDS011;52070;53.760;9.678;2022-07-21T14:00:46;7.60;;;6.22;;
65373;SDS011;52070;53.760;9.678;2022-07-21T14:03:13;8.75;;;7.40;;
65373;SDS011;52070;53.760;9.678;2022-07-21T14:05:40;8.25;;;7.40;;
65373;SDS011;52070;53.760;9.678;2022-07-21T14:08:07;7.65;;;6.95;;
65373;SDS011;52070;53.760;9.678;2022-07-21T14:10:37;7.70;;;7.00;;
65373;SDS011;52070;53.760;9.678;2022-07-21T14:13:05;8.45;;;6.45;;
65373;SDS011;52070;53.760;9.678;2022-07-21T14:15:32;8.77;;;6.82;;
65373;SDS011;52070;53.760;9.678;2022-07-21T14:17:59;8.82;;;6.35;;
65373;SDS011;52070;53.760;9.678;2022-07-21T14:20:26;7.65;;;6.70;;
65373;SDS011;52070;53.760;9.678;2022-07-21T14:22:53;6.80;;;6.10;;
65373;SDS011;52070;53.760;9.678;2022-07-21T14:25:20;7.82;;;6.18;;
65373;SDS011;52070;53.760;9.678;2022-07-21T14:27:49;7.20;;;6.47;;
65373;SDS011;52070;53.760;9.678;2022-07-21T14:30:18;6.50;;;5.90;;
65373;SDS011;52070;53.760;9.678;2022-07-21T14:32:46;6.85;;;6.25;;
65373;SDS011;52070;53.760;9.678;2022-07-21T14:35:13;8.00;;;6.45;;
65373;SDS011;52070;53.760;9.678;2022-07-21T14:37:42;7.88;;;6.65;;
65373;SDS011;52070;53.760;9.678;2022-07-21T14:40:09;8.68;;;7.07;;
65373;SDS011;52070;53.760;9.678;2022-07-21T14:42:37;9.23;;;7.78;;
65373;SDS011;52070;53.760;9.678;2022-07-21T14:45:06;8.30;;;7.50;;
65373;SDS011;52070;53.760;9.678;2022-07-21T14:47:36;9.75;;;7.70;;
65373;SDS011;52070;53.760;9.678;2022-07-21T14:50:04;8.93;;;7.68;;
65373;SDS011;52070;53.760;9.678;2022-07-21T14:52:32;9.05;;;7.80;;
65373;SDS011;52070;53.760;9.678;2022-07-21T14:54:59;8.82;;;7.93;;
65373;SDS011;52070;53.760;9.678;2022-07-21T14:57:26;10.93;;;8.55;;
65373;SDS011;52070;53.760;9.678;2022-07-21T14:59:53;9.30;;;7.95;;
65373;SDS011;52070;53.760;9.678;2022-07-21T15:02:21;9.98;;;8.70;;
65373;SDS011;52070;53.760;9.678;2022-07-21T15:04:48;11.15;;;7.70;;